createdAt,value
2019-03-22T00:01:31.167Z,34.10
2019-03-22T00:04:02.487Z,33.90
2019-03-22T00:06:33.809Z,34.20
2019-03-22T00:09:05.853Z,33.40
2019-03-22T00:11:37.055Z,33.30
2019-03-22T00:14:08.133Z,33.10
2019-03-22T00:16:39.333Z,33.10
2019-03-22T00:19:11.739Z,33.30
2019-03-22T00:21:44.380Z,33.50
2019-03-22T00:24:15.699Z,33.80
2019-03-22T00:26:47.267Z,33.60
2019-03-22T00:29:18.463Z,33.30
2019-03-22T00:31:50.025Z,33.20
2019-03-22T00:34:21.227Z,33.20
2019-03-22T00:36:52.545Z,33.40
2019-03-22T00:39:23.865Z,33.20
2019-03-22T00:41:55.184Z,33.10
2019-03-22T00:44:26.628Z,33.10
2019-03-22T00:46:57.713Z,33.20
2019-03-22T00:49:28.909Z,33.30
2019-03-22T00:52:00.116Z,33.30
2019-03-22T00:54:31.674Z,33.40
2019-03-22T00:57:02.875Z,33.60
2019-03-22T00:59:34.079Z,33.60
2019-03-22T01:02:05.397Z,33.60
2019-03-22T01:04:36.840Z,33.70
2019-03-22T01:07:09.000Z,33.90
2019-03-22T01:09:41.166Z,34.50
2019-03-22T01:12:12.603Z,34.10
2019-03-22T01:14:43.806Z,34.00
2019-03-22T01:17:15.245Z,34.30
2019-03-22T01:19:47.406Z,34.20
2019-03-22T01:22:18.607Z,34.10
2019-03-22T01:24:49.740Z,34.00
2019-03-22T01:27:21.371Z,34.00
2019-03-22T01:29:53.529Z,33.90
2019-03-22T01:32:25.214Z,34.00
2019-03-22T01:34:56.419Z,34.00
2019-03-22T01:37:27.613Z,34.00
2019-03-22T01:39:58.701Z,34.10
2019-03-22T01:42:30.139Z,34.50
2019-03-22T01:45:01.347Z,34.30
2019-03-22T01:47:32.901Z,34.40
2019-03-22T01:50:04.579Z,35.10
2019-03-22T01:52:41.301Z,35.20
2019-03-22T01:55:13.105Z,35.00
2019-03-22T01:57:52.930Z,35.30
2019-03-22T02:00:17.837Z,35.40
2019-03-22T02:02:49.591Z,35.20
2019-03-22T02:05:21.024Z,35.30
2019-03-22T02:07:52.111Z,35.40
2019-03-22T02:10:23.313Z,35.20
2019-03-22T02:12:54.757Z,35.30
2019-03-22T02:15:25.955Z,35.30
2019-03-22T02:17:57.395Z,35.40
2019-03-22T02:20:28.840Z,35.30
2019-03-22T02:23:00.519Z,35.60
2019-03-22T02:25:31.719Z,35.90
2019-03-22T02:28:04.391Z,36.10
2019-03-22T02:30:35.690Z,35.90
2019-03-22T02:33:08.566Z,36.20
2019-03-22T02:35:39.647Z,35.70
2019-03-22T02:38:17.089Z,35.50
2019-03-22T02:40:48.408Z,35.80
2019-03-22T02:43:19.849Z,36.00
2019-03-22T02:45:51.769Z,36.00
2019-03-22T02:48:22.976Z,36.00
2019-03-22T02:50:56.300Z,35.80
2019-03-22T02:53:27.414Z,35.70
2019-03-22T02:55:58.884Z,36.00
2019-03-22T02:58:30.915Z,36.00
2019-03-22T03:01:02.457Z,36.00
2019-03-22T03:03:33.659Z,36.00
2019-03-22T03:06:05.107Z,36.20
2019-03-22T03:08:36.548Z,36.20
2019-03-22T03:11:08.222Z,36.30
2019-03-22T03:13:39.426Z,36.10
2019-03-22T03:16:10.932Z,36.30
2019-03-22T03:18:43.394Z,36.20
2019-03-22T03:21:15.070Z,36.50
2019-03-22T03:23:46.511Z,36.20
2019-03-22T03:26:18.791Z,36.20
2019-03-22T03:28:49.872Z,36.20
2019-03-22T03:31:21.075Z,36.40
2019-03-22T03:33:52.277Z,36.30
2019-03-22T03:36:23.732Z,36.20
2019-03-22T03:38:54.917Z,36.40
2019-03-22T03:41:26.260Z,37.00
2019-03-22T03:43:57.805Z,36.50
2019-03-22T03:46:29.003Z,36.60
2019-03-22T03:49:00.448Z,36.60
2019-03-22T03:51:31.882Z,36.50
2019-03-22T03:54:02.976Z,36.60
2019-03-22T03:56:34.183Z,36.60
2019-03-22T03:59:05.368Z,36.60
2019-03-22T04:01:36.929Z,36.90
2019-03-22T04:04:08.851Z,36.70
2019-03-22T04:06:40.407Z,36.60
2019-03-22T04:09:12.092Z,36.70
2019-03-22T04:11:43.294Z,36.80
2019-03-22T04:14:14.379Z,36.80
2019-03-22T04:16:45.704Z,36.90
2019-03-22T04:19:17.134Z,36.90
2019-03-22T04:21:49.062Z,37.00
2019-03-22T04:24:20.741Z,37.80
2019-03-22T04:26:52.182Z,37.90
2019-03-22T04:29:23.741Z,37.90
2019-03-22T04:31:54.823Z,37.90
2019-03-22T04:34:27.226Z,38.00
2019-03-22T04:36:59.395Z,38.10
2019-03-22T04:39:30.710Z,38.00
2019-03-22T04:42:02.098Z,38.20
2019-03-22T04:44:33.949Z,38.20
2019-03-22T04:47:06.712Z,38.30
2019-03-22T04:49:39.111Z,38.30
2019-03-22T04:52:12.115Z,38.30
2019-03-22T04:54:45.352Z,38.40
2019-03-22T04:57:18.003Z,38.40
2019-03-22T04:59:51.117Z,38.50
2019-03-22T05:02:22.560Z,38.40
2019-03-22T05:04:54.121Z,38.60
2019-03-22T05:07:25.680Z,38.80
2019-03-22T05:09:57.120Z,38.70
2019-03-22T05:12:29.164Z,38.80
2019-03-22T05:15:01.323Z,38.80
2019-03-22T05:17:36.724Z,38.80
2019-03-22T05:20:09.971Z,38.80
2019-03-22T05:22:48.006Z,38.90
2019-03-22T05:25:21.382Z,38.90
2019-03-22T05:27:54.493Z,39.20
2019-03-22T05:31:14.776Z,39.30
2019-03-22T05:33:46.932Z,39.30
2019-03-22T05:36:18.136Z,39.30
2019-03-22T05:38:49.697Z,39.40
2019-03-22T05:41:21.017Z,39.40
2019-03-22T05:43:52.341Z,39.40
2019-03-22T05:46:23.538Z,39.30
2019-03-22T05:48:55.100Z,39.40
2019-03-22T05:51:26.900Z,39.60
2019-03-22T05:53:58.463Z,39.70
2019-03-22T05:56:29.664Z,39.70
2019-03-22T05:59:00.868Z,39.80
2019-03-22T06:01:33.149Z,39.80
2019-03-22T06:04:04.830Z,40.20
2019-03-22T06:06:36.031Z,40.40
2019-03-22T06:09:10.364Z,40.50
2019-03-22T06:11:42.396Z,40.60
2019-03-22T06:14:13.602Z,40.90
2019-03-22T06:16:44.795Z,40.80
2019-03-22T06:19:16.479Z,40.90
2019-03-22T06:21:47.679Z,41.20
2019-03-22T06:24:22.210Z,41.40
2019-03-22T06:26:53.922Z,41.60
2019-03-22T06:29:25.145Z,42.10
2019-03-22T06:31:56.805Z,41.40
2019-03-22T06:34:28.133Z,41.40
2019-03-22T06:36:59.206Z,41.50
2019-03-22T06:39:30.768Z,41.50
2019-03-22T06:42:03.125Z,41.60
2019-03-22T06:44:34.492Z,41.70
2019-03-22T06:47:05.694Z,41.40
2019-03-22T06:49:37.133Z,41.40
2019-03-22T06:52:08.699Z,41.30
2019-03-22T06:54:39.895Z,41.40
2019-03-22T06:57:11.096Z,41.40
2019-03-22T06:59:42.296Z,41.60
2019-03-22T07:02:13.497Z,41.50
2019-03-22T07:04:44.705Z,41.70
2019-03-22T07:07:16.148Z,41.90
2019-03-22T07:09:47.343Z,41.90
2019-03-22T07:12:18.903Z,41.50
2019-03-22T07:14:50.106Z,41.80
2019-03-22T07:17:21.785Z,41.60
2019-03-22T07:19:53.947Z,41.70
2019-03-22T07:22:25.516Z,40.90
2019-03-22T07:24:56.951Z,41.00
2019-03-22T07:27:28.151Z,42.20
2019-03-22T07:29:59.484Z,41.30
2019-03-22T07:32:30.795Z,42.40
2019-03-22T07:35:02.240Z,44.40
2019-03-22T07:37:33.442Z,43.30
2019-03-22T07:40:05.477Z,43.10
2019-03-22T07:42:36.803Z,42.40
2019-03-22T07:45:08.720Z,41.70
2019-03-22T07:47:39.919Z,41.70
2019-03-22T07:50:18.209Z,41.30
2019-03-22T07:52:49.886Z,41.50
2019-03-22T07:55:21.327Z,42.20
2019-03-22T07:57:53.126Z,41.50
2019-03-22T08:00:30.621Z,41.70
2019-03-22T08:02:57.091Z,41.90
2019-03-22T08:05:28.533Z,41.60
2019-03-22T08:07:59.731Z,41.60
2019-03-22T08:10:31.653Z,41.70
2019-03-22T08:13:03.113Z,41.60
2019-03-22T08:15:34.779Z,42.00
2019-03-22T08:18:06.343Z,42.20
2019-03-22T08:20:38.923Z,41.80
2019-03-22T08:23:20.019Z,41.20
2019-03-22T08:25:51.340Z,41.80
2019-03-22T08:28:22.546Z,41.00
2019-03-22T08:30:54.143Z,42.40
2019-03-22T08:33:25.425Z,41.20
2019-03-22T08:35:57.345Z,41.50
2019-03-22T08:38:29.865Z,41.40
2019-03-22T08:41:01.468Z,41.80
2019-03-22T08:43:32.874Z,40.70
2019-03-22T08:46:04.439Z,41.10
2019-03-22T08:48:35.632Z,41.10
2019-03-22T08:51:06.956Z,41.00
2019-03-22T08:53:38.319Z,40.80
2019-03-22T08:56:10.441Z,40.40
2019-03-22T08:58:41.766Z,41.00
2019-03-22T09:01:13.081Z,41.20
2019-03-22T09:03:44.764Z,40.70
2019-03-22T09:06:16.320Z,39.90
2019-03-22T09:08:48.015Z,39.60
2019-03-22T09:11:19.332Z,39.60
2019-03-22T09:13:53.584Z,40.00
2019-03-22T09:16:24.005Z,39.70
2019-03-22T09:18:55.371Z,40.00
2019-03-22T09:21:26.773Z,39.80
2019-03-22T09:23:58.089Z,39.40
2019-03-22T09:26:29.539Z,39.80
2019-03-22T09:29:01.135Z,39.10
2019-03-22T09:31:32.776Z,38.80
2019-03-22T09:34:03.993Z,38.70
2019-03-22T09:36:36.163Z,39.00
2019-03-22T09:39:09.643Z,39.30
2019-03-22T09:41:40.824Z,39.20
2019-03-22T09:44:12.141Z,38.40
2019-03-22T09:46:43.352Z,37.40
2019-03-22T09:49:14.620Z,37.40
2019-03-22T09:51:45.744Z,38.00
2019-03-22T09:54:18.026Z,38.70
2019-03-22T09:56:49.225Z,39.20
2019-03-22T09:59:21.386Z,37.90
2019-03-22T10:01:53.093Z,38.20
2019-03-22T10:04:24.930Z,38.10
2019-03-22T10:06:56.435Z,37.90
2019-03-22T10:09:27.631Z,37.10
2019-03-22T10:11:59.075Z,37.50
2019-03-22T10:14:31.433Z,37.80
2019-03-22T10:17:02.831Z,38.80
2019-03-22T10:19:34.845Z,39.50
2019-03-22T10:22:06.304Z,39.50
2019-03-22T10:24:37.860Z,38.60
2019-03-22T10:27:09.117Z,38.50
2019-03-22T10:29:40.389Z,38.30
2019-03-22T10:32:11.811Z,37.80
2019-03-22T10:34:43.309Z,38.70
2019-03-22T10:37:14.567Z,38.10
2019-03-22T10:39:45.768Z,37.30
2019-03-22T10:42:16.978Z,38.60
2019-03-22T10:44:48.894Z,38.80
2019-03-22T10:47:20.251Z,37.90
2019-03-22T10:49:51.771Z,37.40
2019-03-22T10:52:22.895Z,37.50
2019-03-22T10:54:54.255Z,36.50
2019-03-22T10:57:25.857Z,36.80
2019-03-22T10:59:57.296Z,37.20
2019-03-22T11:02:29.100Z,37.90
2019-03-22T11:05:02.067Z,38.70
2019-03-22T11:07:34.499Z,38.40
2019-03-22T11:10:08.341Z,37.60
2019-03-22T11:12:39.906Z,38.20
2019-03-22T11:15:11.704Z,37.80
2019-03-22T11:17:43.150Z,38.90
2019-03-22T11:20:19.265Z,39.20
2019-03-22T11:22:50.591Z,38.20
2019-03-22T11:25:21.790Z,38.00
2019-03-22T11:27:53.833Z,37.20
2019-03-22T11:30:26.476Z,37.60
2019-03-22T11:32:57.794Z,38.10
2019-03-22T11:35:29.354Z,38.40
2019-03-22T11:38:00.798Z,38.70
2019-03-22T11:40:46.823Z,38.90
2019-03-22T11:43:17.720Z,37.30
2019-03-22T11:45:49.046Z,36.60
2019-03-22T11:48:20.126Z,36.90
2019-03-22T11:50:52.044Z,36.30
2019-03-22T11:53:23.244Z,36.20
2019-03-22T11:55:54.687Z,35.40
2019-03-22T11:58:26.008Z,35.40
2019-03-22T12:00:57.455Z,37.00
2019-03-22T12:03:28.771Z,36.60
2019-03-22T12:05:59.971Z,36.90
2019-03-22T12:08:31.652Z,36.50
2019-03-22T12:11:02.860Z,36.80
2019-03-22T12:13:34.801Z,36.80
2019-03-22T12:16:06.094Z,35.80
2019-03-22T12:18:37.420Z,35.60
2019-03-22T12:21:08.977Z,36.50
2019-03-22T12:23:40.538Z,36.60
2019-03-22T12:26:11.742Z,36.50
2019-03-22T12:28:42.944Z,36.50
2019-03-22T12:31:14.262Z,35.50
2019-03-22T12:33:45.832Z,35.30
2019-03-22T12:36:17.027Z,35.70
2019-03-22T12:38:48.588Z,35.40
2019-03-22T12:41:21.108Z,35.90
2019-03-22T12:43:52.191Z,35.50
2019-03-22T12:46:24.470Z,36.00
2019-03-22T12:48:55.671Z,36.20
2019-03-22T12:51:26.874Z,36.90
2019-03-22T12:53:58.322Z,37.40
2019-03-22T12:56:29.514Z,37.10
2019-03-22T12:59:00.599Z,37.90
2019-03-22T13:01:31.681Z,37.30
2019-03-22T13:04:03.009Z,36.70
2019-03-22T13:06:34.561Z,36.40
2019-03-22T13:09:09.241Z,37.20
2019-03-22T13:11:40.712Z,36.90
2019-03-22T13:14:12.486Z,37.10
2019-03-22T13:16:43.926Z,36.80
2019-03-22T13:19:15.368Z,36.50
2019-03-22T13:21:46.448Z,36.20
2019-03-22T13:24:18.252Z,35.70
2019-03-22T13:26:50.065Z,35.30
2019-03-22T13:29:21.618Z,34.90
2019-03-22T13:31:53.174Z,35.10
2019-03-22T13:34:24.379Z,34.20
2019-03-22T13:36:55.696Z,34.80
2019-03-22T13:39:27.257Z,33.00
2019-03-22T13:41:58.458Z,33.60
2019-03-22T13:44:29.783Z,34.20
2019-03-22T13:47:00.980Z,34.70
2019-03-22T13:49:32.302Z,33.90
2019-03-22T13:52:03.503Z,35.00
2019-03-22T13:54:34.947Z,34.30
2019-03-22T13:57:06.506Z,33.10
2019-03-22T13:59:38.786Z,32.70
2019-03-22T14:02:09.874Z,33.40
2019-03-22T14:04:41.550Z,33.30
2019-03-22T14:07:12.870Z,33.10
2019-03-22T14:09:44.192Z,33.00
2019-03-22T14:12:15.394Z,32.90
2019-03-22T14:14:46.961Z,32.20
2019-03-22T14:17:18.396Z,32.80
2019-03-22T14:19:49.721Z,32.40
2019-03-22T14:22:21.402Z,33.70
2019-03-22T14:24:54.040Z,32.50
2019-03-22T14:27:25.360Z,33.20
2019-03-22T14:29:56.811Z,32.30
2019-03-22T14:32:29.084Z,33.20
2019-03-22T14:35:01.006Z,33.10
2019-03-22T14:37:57.767Z,33.00
2019-03-22T14:40:29.690Z,32.60
2019-03-22T14:43:00.892Z,32.40
2019-03-22T14:45:32.211Z,31.30
2019-03-22T14:48:04.500Z,30.10
2019-03-22T14:50:36.532Z,29.60
2019-03-22T14:53:08.576Z,29.60
2019-03-22T14:55:40.017Z,30.20
2019-03-22T14:58:11.586Z,31.10
2019-03-22T15:00:43.020Z,30.40
2019-03-22T15:06:44.821Z,29.90
2019-03-22T15:09:16.262Z,30.00
2019-03-22T15:11:47.346Z,30.00
2019-03-22T15:14:49.750Z,29.60
2019-03-22T15:17:42.666Z,29.30
2019-03-22T15:20:30.909Z,28.70
2019-03-22T15:23:14.949Z,28.70
2019-03-22T15:26:20.593Z,28.00
2019-03-22T15:29:10.042Z,28.10
2019-03-22T15:31:57.555Z,27.80
2019-03-22T15:34:46.879Z,27.90
2019-03-22T15:37:34.106Z,28.90
2019-03-22T15:40:06.201Z,28.60
2019-03-22T15:42:37.885Z,29.50
2019-03-22T15:45:10.902Z,30.30
2019-03-22T15:47:43.411Z,29.40
2019-03-22T15:50:17.009Z,28.70
2019-03-22T15:52:48.445Z,28.40
2019-03-22T15:55:20.729Z,28.90
2019-03-22T15:57:52.287Z,29.50
2019-03-22T16:00:23.487Z,29.70
2019-03-22T16:02:54.689Z,29.60
2019-03-22T16:05:26.850Z,30.00
2019-03-22T16:07:58.419Z,30.40
2019-03-22T16:10:29.855Z,30.60
2019-03-22T16:13:01.174Z,31.30
2019-03-22T16:15:32.735Z,32.30
2019-03-22T16:18:04.065Z,31.50
2019-03-22T16:20:36.579Z,31.70
2019-03-22T16:23:07.783Z,31.50
2019-03-22T16:25:39.346Z,31.10
2019-03-22T16:28:11.743Z,31.60
2019-03-22T16:30:44.024Z,32.60
2019-03-22T16:33:15.584Z,32.60
2019-03-22T16:35:47.744Z,33.00
2019-03-22T16:38:20.749Z,33.30
2019-03-22T16:40:52.429Z,33.40
2019-03-22T16:43:24.110Z,34.00
2019-03-22T16:45:57.111Z,35.10
2019-03-22T16:48:28.552Z,35.40
2019-03-22T16:51:00.359Z,34.80
2019-03-22T16:53:32.157Z,34.70
2019-03-22T16:56:07.333Z,35.00
2019-03-22T16:58:41.039Z,34.80
2019-03-22T17:01:14.397Z,35.70
2019-03-22T17:03:45.965Z,35.50
2019-03-22T17:06:19.443Z,35.40
2019-03-22T17:08:51.249Z,35.20
2019-03-22T17:11:25.323Z,35.40
2019-03-22T17:13:56.885Z,35.80
2019-03-22T17:16:28.448Z,35.90
2019-03-22T17:18:59.891Z,36.20
2019-03-22T17:21:31.940Z,36.30
2019-03-22T17:24:04.471Z,36.60
2019-03-22T17:26:36.252Z,36.50
2019-03-22T17:29:07.695Z,36.40
2019-03-22T17:31:39.377Z,35.60
2019-03-22T17:34:14.397Z,35.90
2019-03-22T17:36:43.938Z,36.50
2019-03-22T17:39:17.257Z,36.00
2019-03-22T17:41:48.260Z,36.50
2019-03-22T17:44:20.182Z,36.50
2019-03-22T17:46:51.622Z,36.60
2019-03-22T17:49:23.548Z,36.80
2019-03-22T17:51:55.584Z,36.80
2019-03-22T17:54:27.154Z,37.20
2019-03-22T17:56:58.829Z,37.20
2019-03-22T17:59:30.630Z,37.50
2019-03-22T18:02:02.670Z,37.30
2019-03-22T18:04:33.992Z,37.30
2019-03-22T18:07:05.433Z,37.20
2019-03-22T18:09:36.755Z,37.20
2019-03-22T18:12:08.560Z,36.70
2019-03-22T18:14:40.118Z,37.30
2019-03-22T18:17:11.558Z,37.30
2019-03-22T18:19:43.118Z,37.30
2019-03-22T18:22:14.562Z,37.40
2019-03-22T18:24:46.004Z,37.40
2019-03-22T18:27:17.803Z,37.30
2019-03-22T18:29:50.451Z,37.30
2019-03-22T18:32:24.293Z,37.40
2019-03-22T18:34:58.012Z,37.40
2019-03-22T18:37:31.496Z,37.30
2019-03-22T18:40:02.808Z,37.40
2019-03-22T18:42:34.730Z,37.40
2019-03-22T18:45:07.012Z,37.30
2019-03-22T18:47:38.455Z,37.20
2019-03-22T18:53:22.139Z,37.20
2019-03-22T18:55:53.698Z,37.30
2019-03-22T18:58:25.260Z,37.50
2019-03-22T19:00:58.502Z,37.60
2019-03-22T19:03:31.980Z,38.20
2019-03-22T19:06:03.679Z,37.70
2019-03-22T19:08:37.276Z,37.70
2019-03-22T19:11:09.666Z,37.60
2019-03-22T19:13:44.708Z,37.50
2019-03-22T19:16:16.632Z,37.30
2019-03-22T19:18:48.430Z,37.30
2019-03-22T19:21:19.632Z,37.50
2019-03-22T19:23:51.191Z,37.40
2019-03-22T19:26:22.780Z,37.40
2019-03-22T19:28:54.193Z,37.90
2019-03-22T19:31:25.994Z,37.90
2019-03-22T19:33:57.439Z,37.80
2019-03-22T19:36:29.841Z,37.90
2019-03-22T19:39:02.239Z,38.00
2019-03-22T19:41:36.199Z,38.10
2019-03-22T19:44:07.650Z,38.00
2019-03-22T19:46:39.322Z,38.50
2019-03-22T19:49:10.767Z,38.10
2019-03-22T19:51:42.208Z,38.00
2019-03-22T19:54:13.771Z,39.10
2019-03-22T19:56:45.327Z,38.10
2019-03-22T19:59:17.008Z,38.30
2019-03-22T20:01:48.604Z,38.00
2019-03-22T20:04:20.374Z,37.80
2019-03-22T20:06:53.732Z,37.90
2019-03-22T20:09:25.541Z,38.00
2019-03-22T20:11:58.061Z,37.90
2019-03-22T20:14:30.216Z,38.10
2019-03-22T20:17:01.901Z,38.00
2019-03-22T20:19:33.581Z,38.70
2019-03-22T20:22:05.142Z,38.00
2019-03-22T20:24:36.467Z,38.10
2019-03-22T20:27:08.262Z,38.30
2019-03-22T20:29:40.904Z,38.30
2019-03-22T20:32:12.586Z,38.40
2019-03-22T20:34:44.389Z,38.40
2019-03-22T20:37:16.311Z,38.50
2019-03-22T20:39:48.836Z,38.40
2019-03-22T20:42:20.150Z,38.80
2019-03-22T20:44:52.197Z,39.10
2019-03-22T20:47:24.234Z,38.90
2019-03-22T20:49:56.274Z,39.10
2019-03-22T20:52:28.678Z,38.80
2019-03-22T20:55:03.841Z,38.60
2019-03-22T20:57:35.280Z,38.60
2019-03-22T21:00:08.039Z,39.30
2019-03-22T21:02:39.483Z,38.30
2019-03-22T21:05:26.142Z,38.80
2019-03-22T21:07:49.211Z,39.00
2019-03-22T21:10:21.128Z,39.00
2019-03-22T21:12:52.688Z,39.00
2019-03-22T21:15:24.979Z,39.00
2019-03-22T21:17:56.769Z,38.90
2019-03-22T21:20:28.929Z,38.80
2019-03-22T21:23:00.611Z,38.70
2019-03-22T21:25:32.893Z,38.80
2019-03-22T21:28:04.340Z,39.00
2019-03-22T21:30:37.460Z,38.80
2019-03-22T21:33:08.655Z,39.00
2019-03-22T21:35:40.577Z,39.20
2019-03-22T21:38:12.859Z,39.10
2019-03-22T21:40:44.661Z,39.10
2019-03-22T21:43:16.222Z,39.30
2019-03-22T21:45:48.144Z,39.30
2019-03-22T21:48:19.706Z,39.40
2019-03-22T21:50:51.386Z,39.40
2019-03-22T21:53:22.827Z,39.50
2019-03-22T21:55:54.471Z,39.60
2019-03-22T21:58:25.830Z,39.90
2019-03-22T22:00:57.993Z,39.90
2019-03-22T22:03:29.551Z,39.70
2019-03-22T22:06:01.233Z,39.60
2019-03-22T22:08:32.560Z,39.40
2019-03-22T22:11:04.479Z,39.40
2019-03-22T22:13:37.001Z,39.70
2019-03-22T22:16:08.802Z,39.60
2019-03-22T22:18:41.799Z,39.70
2019-03-22T22:21:13.242Z,39.80
2019-03-22T22:23:45.048Z,39.80
2019-03-22T22:26:16.604Z,39.90
2019-03-22T22:28:49.607Z,39.90
2019-03-22T22:31:21.525Z,39.90
2019-03-22T22:33:53.454Z,40.00
2019-03-22T22:36:25.161Z,40.20
2019-03-22T22:38:56.809Z,40.40
2019-03-22T22:41:30.288Z,40.70
2019-03-22T22:44:02.332Z,40.70
2019-03-22T22:46:34.372Z,40.80
2019-03-22T22:49:07.017Z,41.00
2019-03-22T22:51:38.339Z,41.00
2019-03-22T22:54:10.016Z,41.00
2019-03-22T22:56:42.179Z,41.00
2019-03-22T22:59:14.104Z,41.00
2019-03-22T23:01:46.141Z,41.10
2019-03-22T23:04:17.581Z,41.00
2019-03-22T23:06:49.024Z,41.00
2019-03-22T23:09:20.359Z,40.80
2019-03-22T23:11:52.747Z,40.90
2019-03-22T23:14:26.227Z,41.10
2019-03-22T23:16:58.389Z,41.20
2019-03-22T23:19:30.431Z,41.00
2019-03-22T23:22:01.871Z,41.10
2019-03-22T23:24:33.910Z,41.10
2019-03-22T23:27:05.356Z,41.30
2019-03-22T23:29:37.170Z,41.10
2019-03-22T23:32:08.715Z,41.20
2019-03-22T23:34:40.801Z,40.90
2019-03-22T23:37:12.559Z,40.70
2019-03-22T23:39:45.798Z,40.90
2019-03-22T23:42:17.360Z,41.10
2019-03-22T23:44:49.169Z,40.70
2019-03-22T23:47:21.083Z,40.80
2019-03-22T23:49:52.650Z,40.70
2019-03-22T23:52:24.569Z,40.90
2019-03-22T23:54:56.247Z,41.00
2019-03-22T23:57:27.694Z,40.90
2019-03-22T23:59:59.371Z,40.90
